createdAt,value
2018-05-03T00:00:28.946Z,9.35
2018-05-03T00:02:56.522Z,9.25
2018-05-03T00:05:24.077Z,9.26
2018-05-03T00:07:51.602Z,9.27
2018-05-03T00:10:19.135Z,9.33
2018-05-03T00:12:46.750Z,9.31
2018-05-03T00:15:14.257Z,9.37
2018-05-03T00:17:41.793Z,9.36
2018-05-03T00:20:09.292Z,9.26
2018-05-03T00:22:36.894Z,9.10
2018-05-03T00:25:04.447Z,9.08
2018-05-03T00:27:32.005Z,8.79
2018-05-03T00:29:59.525Z,8.95
2018-05-03T00:32:27.103Z,8.85
2018-05-03T00:34:54.686Z,8.88
2018-05-03T00:37:22.245Z,8.88
2018-05-03T00:39:49.757Z,8.89
2018-05-03T00:42:17.294Z,8.88
2018-05-03T00:44:44.837Z,8.84
2018-05-03T00:47:12.386Z,8.92
2018-05-03T00:49:39.917Z,8.90
2018-05-03T00:52:07.469Z,8.94
2018-05-03T00:54:46.741Z,8.89
2018-05-03T00:57:14.395Z,8.79
2018-05-03T00:59:41.958Z,8.76
2018-05-03T01:02:09.524Z,8.74
2018-05-03T01:04:37.033Z,8.88
2018-05-03T01:07:04.569Z,8.84
2018-05-03T01:09:32.090Z,8.84
2018-05-03T01:11:59.742Z,8.39
2018-05-03T01:14:27.261Z,8.54
2018-05-03T01:16:54.874Z,8.65
2018-05-03T01:19:22.441Z,8.55
2018-05-03T01:21:49.995Z,8.62
2018-05-03T01:24:17.553Z,8.74
2018-05-03T01:26:45.102Z,8.64
2018-05-03T01:29:12.670Z,8.67
2018-05-03T01:31:40.230Z,8.55
2018-05-03T01:34:07.789Z,8.56
2018-05-03T01:36:35.464Z,8.40
2018-05-03T01:39:03.018Z,8.51
2018-05-03T01:41:30.568Z,8.38
2018-05-03T01:43:58.117Z,8.60
2018-05-03T01:46:26.519Z,8.19
2018-05-03T01:48:54.078Z,8.33
2018-05-03T01:51:21.600Z,8.31
2018-05-03T01:53:49.179Z,8.33
2018-05-03T01:56:16.729Z,8.39
2018-05-03T01:58:44.301Z,8.36
2018-05-03T02:01:11.832Z,8.42
2018-05-03T02:03:39.387Z,8.32
2018-05-03T02:06:06.912Z,8.37
2018-05-03T02:08:34.457Z,8.23
2018-05-03T02:11:01.992Z,8.42
2018-05-03T02:13:29.543Z,8.27
2018-05-03T02:15:57.066Z,8.26
2018-05-03T02:18:24.697Z,8.28
2018-05-03T02:20:52.353Z,8.24
2018-05-03T02:23:20.603Z,8.17
2018-05-03T02:25:48.129Z,8.06
2018-05-03T02:28:15.740Z,7.89
2018-05-03T02:30:43.305Z,8.02
2018-05-03T02:33:10.886Z,8.11
2018-05-03T02:35:38.417Z,7.93
2018-05-03T02:38:05.970Z,7.99
2018-05-03T02:40:33.498Z,8.01
2018-05-03T02:43:01.047Z,7.86
2018-05-03T02:45:28.668Z,8.03
2018-05-03T02:47:56.333Z,8.08
2018-05-03T02:50:23.885Z,7.96
2018-05-03T02:52:51.539Z,8.03
2018-05-03T02:55:19.082Z,7.89
2018-05-03T02:58:04.112Z,7.84
2018-05-03T03:00:49.440Z,7.85
2018-05-03T03:03:34.721Z,7.88
2018-05-03T03:06:14.159Z,7.96
2018-05-03T03:12:28.652Z,7.83
2018-05-03T03:15:13.502Z,7.72
2018-05-03T03:21:13.033Z,7.62
2018-05-03T03:23:58.238Z,7.63
2018-05-03T03:29:52.037Z,7.69
2018-05-03T03:32:31.342Z,7.74
2018-05-03T03:38:21.751Z,7.72
2018-05-03T03:44:04.576Z,7.44
2018-05-03T03:46:32.158Z,7.50
2018-05-03T03:48:59.661Z,7.50
2018-05-03T03:51:27.278Z,7.27
2018-05-03T03:53:54.837Z,7.09
2018-05-03T03:56:22.389Z,7.10
2018-05-03T03:58:50.913Z,7.00
2018-05-03T04:01:18.436Z,7.19
2018-05-03T04:03:46.095Z,7.20
2018-05-03T04:06:13.625Z,7.25
2018-05-03T04:08:41.209Z,7.18
2018-05-03T04:11:08.771Z,7.26
2018-05-03T04:13:36.363Z,7.09
2018-05-03T04:16:03.929Z,6.95
2018-05-03T04:18:43.122Z,7.14
2018-05-03T04:21:22.689Z,7.16
2018-05-03T04:24:12.866Z,6.74
2018-05-03T04:26:40.417Z,6.89
2018-05-03T04:29:07.994Z,6.96
2018-05-03T04:31:35.522Z,6.98
2018-05-03T04:34:03.196Z,6.95
2018-05-03T04:36:30.727Z,7.06
2018-05-03T04:38:58.319Z,7.02
2018-05-03T04:41:25.832Z,7.01
2018-05-03T04:43:53.381Z,6.97
2018-05-03T04:46:20.910Z,7.12
2018-05-03T04:48:48.546Z,6.94
2018-05-03T04:51:16.015Z,6.80
2018-05-03T04:53:43.592Z,6.85
2018-05-03T04:56:11.221Z,7.02
2018-05-03T04:58:38.795Z,6.94
2018-05-03T05:01:06.350Z,7.04
2018-05-03T05:03:34.158Z,7.14
2018-05-03T05:06:01.853Z,7.11
2018-05-03T05:08:29.455Z,7.20
2018-05-03T05:10:56.956Z,7.50
2018-05-03T05:13:24.560Z,7.49
2018-05-03T05:15:52.117Z,7.56
2018-05-03T05:18:19.677Z,7.75
2018-05-03T05:20:47.234Z,7.79
2018-05-03T05:23:14.814Z,7.86
2018-05-03T05:25:43.545Z,7.79
2018-05-03T05:28:11.125Z,7.93
2018-05-03T05:30:41.302Z,8.06
2018-05-03T05:33:09.029Z,8.23
2018-05-03T05:35:36.580Z,8.23
2018-05-03T05:38:04.181Z,8.29
2018-05-03T05:40:31.716Z,8.27
2018-05-03T05:42:59.235Z,8.31
2018-05-03T05:45:26.790Z,8.57
2018-05-03T05:47:54.395Z,8.32
2018-05-03T05:50:21.944Z,8.36
2018-05-03T05:52:49.470Z,8.53
2018-05-03T05:55:17.053Z,8.58
2018-05-03T05:57:44.573Z,8.54
2018-05-03T06:00:12.184Z,8.64
2018-05-03T06:02:39.705Z,8.87
2018-05-03T06:05:09.423Z,9.06
2018-05-03T06:07:37.139Z,9.21
2018-05-03T06:10:08.478Z,9.48
2018-05-03T06:12:36.162Z,9.60
2018-05-03T06:15:03.714Z,9.71
2018-05-03T06:17:31.249Z,9.65
2018-05-03T06:19:58.832Z,9.89
2018-05-03T06:22:26.381Z,10.14
2018-05-03T06:24:54.138Z,10.08
2018-05-03T06:27:21.677Z,10.36
2018-05-03T06:29:49.364Z,10.63
2018-05-03T06:32:19.705Z,10.87
2018-05-03T06:34:50.238Z,11.00
2018-05-03T06:37:18.587Z,11.24
2018-05-03T06:39:46.345Z,11.21
2018-05-03T06:42:15.465Z,11.37
2018-05-03T06:44:45.542Z,11.46
2018-05-03T06:47:13.121Z,11.60
2018-05-03T06:49:41.353Z,11.99
2018-05-03T06:52:11.981Z,12.17
2018-05-03T06:54:40.307Z,12.38
2018-05-03T06:57:07.877Z,12.58
2018-05-03T06:59:39.111Z,12.53
2018-05-03T07:02:10.419Z,12.91
2018-05-03T07:04:43.958Z,13.12
2018-05-03T07:07:15.953Z,13.21
2018-05-03T07:09:46.822Z,13.17
2018-05-03T07:12:18.224Z,13.54
2018-05-03T07:14:49.169Z,13.59
2018-05-03T07:17:20.497Z,13.76
2018-05-03T07:19:52.080Z,13.93
2018-05-03T07:22:23.072Z,13.84
2018-05-03T07:24:57.028Z,14.02
2018-05-03T07:27:29.958Z,13.92
2018-05-03T07:30:01.244Z,13.94
2018-05-03T07:32:35.200Z,14.18
2018-05-03T07:35:09.093Z,14.20
2018-05-03T07:37:40.013Z,13.94
2018-05-03T07:40:12.598Z,14.20
2018-05-03T07:42:44.078Z,14.12
2018-05-03T07:45:15.052Z,14.24
2018-05-03T07:47:45.395Z,14.44
2018-05-03T07:50:16.565Z,14.41
2018-05-03T07:52:45.806Z,14.51
2018-05-03T07:55:13.506Z,14.45
2018-05-03T07:57:47.327Z,14.65
2018-05-03T08:00:18.269Z,14.82
2018-05-03T08:02:49.568Z,14.43
2018-05-03T08:05:21.265Z,14.60
2018-05-03T08:07:52.714Z,14.67
2018-05-03T08:10:24.674Z,14.93
2018-05-03T08:12:56.369Z,15.07
2018-05-03T08:15:29.589Z,14.93
2018-05-03T08:18:03.097Z,14.67
2018-05-03T08:20:36.721Z,14.80
2018-05-03T08:23:08.383Z,15.13
2018-05-03T08:25:41.289Z,15.42
2018-05-03T08:28:13.888Z,15.47
2018-05-03T08:30:45.997Z,15.36
2018-05-03T08:33:17.392Z,15.21
2018-05-03T08:35:48.554Z,15.05
2018-05-03T08:38:20.028Z,15.04
2018-05-03T08:40:53.648Z,15.03
2018-05-03T08:43:24.717Z,15.42
2018-05-03T08:45:56.016Z,15.45
2018-05-03T08:48:30.020Z,15.18
2018-05-03T08:51:02.718Z,15.49
2018-05-03T08:53:35.638Z,15.54
2018-05-03T08:56:09.142Z,16.01
2018-05-03T08:58:40.391Z,16.04
2018-05-03T09:01:13.819Z,15.98
2018-05-03T09:03:48.391Z,15.82
2018-05-03T09:06:21.672Z,16.11
2018-05-03T09:08:54.677Z,15.79
2018-05-03T09:11:27.889Z,16.24
2018-05-03T09:14:02.434Z,15.80
2018-05-03T09:16:35.618Z,16.08
2018-05-03T09:19:12.262Z,15.58
2018-05-03T09:21:45.314Z,15.61
2018-05-03T09:24:16.788Z,15.71
2018-05-03T09:26:51.858Z,15.74
2018-05-03T09:29:23.554Z,15.71
2018-05-03T09:31:59.821Z,15.62
2018-05-03T09:34:33.345Z,16.01
2018-05-03T09:37:06.205Z,16.23
2018-05-03T09:39:39.300Z,16.16
2018-05-03T09:42:15.681Z,16.08
2018-05-03T09:44:49.872Z,16.15
2018-05-03T09:47:26.155Z,16.10
2018-05-03T09:49:57.189Z,16.13
2018-05-03T09:52:29.958Z,16.29
2018-05-03T09:55:01.862Z,15.95
2018-05-03T09:57:35.789Z,15.93
2018-05-03T10:00:09.232Z,16.23
2018-05-03T10:02:44.221Z,16.16
2018-05-03T10:05:16.876Z,16.15
2018-05-03T10:07:49.607Z,16.16
2018-05-03T10:10:22.380Z,16.54
2018-05-03T10:13:01.151Z,16.69
2018-05-03T10:18:08.997Z,16.96
2018-05-03T10:20:44.107Z,16.85
2018-05-03T10:25:53.202Z,16.87
2018-05-03T10:28:28.790Z,17.40
2018-05-03T10:33:37.500Z,17.68
2018-05-03T10:36:08.920Z,17.66
2018-05-03T10:38:43.881Z,17.86
2018-05-03T10:41:18.009Z,17.41
2018-05-03T10:43:51.025Z,17.01
2018-05-03T10:46:22.363Z,17.26
2018-05-03T10:48:54.015Z,17.30
2018-05-03T10:51:26.117Z,17.32
2018-05-03T10:53:58.100Z,17.52
2018-05-03T10:56:31.374Z,17.58
2018-05-03T10:59:03.540Z,17.52
2018-05-03T11:01:36.279Z,17.36
2018-05-03T11:04:09.201Z,17.38
2018-05-03T11:06:40.904Z,17.25
2018-05-03T11:09:13.679Z,17.20
2018-05-03T11:11:44.700Z,17.24
2018-05-03T11:14:16.082Z,17.60
2018-05-03T11:16:45.075Z,17.79
2018-05-03T11:19:15.628Z,17.84
2018-05-03T11:21:48.651Z,18.04
2018-05-03T11:24:16.375Z,17.82
2018-05-03T11:26:46.082Z,17.87
2018-05-03T11:29:15.227Z,17.90
2018-05-03T11:31:48.358Z,18.08
2018-05-03T11:34:16.220Z,18.24
2018-05-03T11:36:44.873Z,18.15
2018-05-03T11:39:12.977Z,18.10
2018-05-03T11:41:41.766Z,18.01
2018-05-03T11:44:09.345Z,17.83
2018-05-03T11:46:37.019Z,17.69
2018-05-03T11:49:05.546Z,17.65
2018-05-03T11:51:33.141Z,17.81
2018-05-03T11:54:00.968Z,17.87
2018-05-03T11:56:28.599Z,17.84
2018-05-03T11:58:56.228Z,17.62
2018-05-03T12:01:23.831Z,17.90
2018-05-03T12:03:51.391Z,17.86
2018-05-03T12:06:18.902Z,18.08
2018-05-03T12:08:46.492Z,18.06
2018-05-03T12:11:14.142Z,17.98
2018-05-03T12:13:42.818Z,18.09
2018-05-03T12:16:11.944Z,18.11
2018-05-03T12:18:39.643Z,17.95
2018-05-03T12:21:11.844Z,17.87
2018-05-03T12:23:41.513Z,17.89
2018-05-03T12:26:09.427Z,17.86
2018-05-03T12:28:37.029Z,17.78
2018-05-03T12:31:04.761Z,18.00
2018-05-03T12:33:32.311Z,18.24
2018-05-03T12:36:00.162Z,18.42
2018-05-03T12:38:27.713Z,18.48
2018-05-03T12:40:55.716Z,18.08
2018-05-03T12:43:24.681Z,18.16
2018-05-03T12:45:52.696Z,18.42
2018-05-03T12:48:22.473Z,18.55
2018-05-03T12:50:50.128Z,18.67
2018-05-03T12:53:18.227Z,18.09
2018-05-03T12:55:47.550Z,18.01
2018-05-03T12:58:17.132Z,18.16
2018-05-03T13:00:44.764Z,18.28
2018-05-03T13:03:12.941Z,18.50
2018-05-03T13:05:41.234Z,18.15
2018-05-03T13:08:08.766Z,18.25
2018-05-03T13:10:36.344Z,18.47
2018-05-03T13:13:07.819Z,18.22
2018-05-03T13:15:35.999Z,18.43
2018-05-03T13:18:05.648Z,18.29
2018-05-03T13:20:33.422Z,18.35
2018-05-03T13:23:01.017Z,18.62
2018-05-03T13:25:29.518Z,18.21
2018-05-03T13:27:57.568Z,18.47
2018-05-03T13:30:26.337Z,18.49
2018-05-03T13:32:54.213Z,18.63
2018-05-03T13:35:22.046Z,18.54
2018-05-03T13:37:49.569Z,18.53
2018-05-03T13:40:17.649Z,18.65
2018-05-03T13:42:45.178Z,18.31
2018-05-03T13:45:12.750Z,18.11
2018-05-03T13:47:41.697Z,18.18
2018-05-03T13:50:09.484Z,18.32
2018-05-03T13:52:39.358Z,18.27
2018-05-03T13:55:10.233Z,18.43
2018-05-03T13:57:37.913Z,17.94
2018-05-03T14:00:07.689Z,18.23
2018-05-03T14:02:35.217Z,18.09
2018-05-03T14:05:02.818Z,18.05
2018-05-03T14:07:32.849Z,18.17
2018-05-03T14:10:00.651Z,18.28
2018-05-03T14:12:28.878Z,18.21
2018-05-03T14:14:57.155Z,18.22
2018-05-03T14:17:27.413Z,18.16
2018-05-03T14:19:57.708Z,18.31
2018-05-03T14:22:25.567Z,18.36
2018-05-03T14:24:53.137Z,18.36
2018-05-03T14:27:20.896Z,18.27
2018-05-03T14:29:48.466Z,18.38
2018-05-03T14:32:15.994Z,18.53
2018-05-03T14:34:43.523Z,18.53
2018-05-03T14:37:11.076Z,18.66
2018-05-03T14:39:38.681Z,18.34
2018-05-03T14:42:06.253Z,18.31
2018-05-03T14:44:33.780Z,18.48
2018-05-03T14:47:02.320Z,18.80
2018-05-03T14:49:29.861Z,18.95
2018-05-03T14:51:57.440Z,19.01
2018-05-03T14:54:25.013Z,18.98
2018-05-03T14:56:54.708Z,18.83
2018-05-03T14:59:24.693Z,18.92
2018-05-03T15:01:55.405Z,18.76
2018-05-03T15:04:23.517Z,18.86
2018-05-03T15:06:51.700Z,18.65
2018-05-03T15:09:19.308Z,18.77
2018-05-03T15:11:50.613Z,19.04
2018-05-03T15:14:18.156Z,19.09
2018-05-03T15:16:46.215Z,19.30
2018-05-03T15:19:13.773Z,19.17
2018-05-03T15:21:41.315Z,19.21
2018-05-03T15:24:08.871Z,18.74
2018-05-03T15:26:37.171Z,19.09
2018-05-03T15:29:04.793Z,19.05
2018-05-03T15:31:33.375Z,19.13
2018-05-03T15:34:00.926Z,19.34
2018-05-03T15:36:28.501Z,19.62
2018-05-03T15:38:58.097Z,20.05
2018-05-03T15:41:25.657Z,19.99
2018-05-03T15:43:53.246Z,20.12
2018-05-03T15:46:20.931Z,19.77
2018-05-03T15:48:49.302Z,20.05
2018-05-03T15:51:17.288Z,19.88
2018-05-03T15:53:44.892Z,19.57
2018-05-03T15:56:13.209Z,19.68
2018-05-03T15:58:40.874Z,19.72
2018-05-03T16:01:09.083Z,19.75
2018-05-03T16:03:36.729Z,19.75
2018-05-03T16:06:04.277Z,19.44
2018-05-03T16:08:33.489Z,19.61
2018-05-03T16:11:04.884Z,19.66
2018-05-03T16:13:33.674Z,19.69
2018-05-03T16:16:02.287Z,19.80
2018-05-03T16:18:33.178Z,19.95
2018-05-03T16:21:04.585Z,20.13
2018-05-03T16:23:33.771Z,19.96
2018-05-03T16:26:06.158Z,20.09
2018-05-03T16:28:34.327Z,20.58
2018-05-03T16:31:02.128Z,20.24
2018-05-03T16:33:29.863Z,20.31
2018-05-03T16:35:57.657Z,20.56
2018-05-03T16:38:25.460Z,19.88
2018-05-03T16:40:53.446Z,19.82
2018-05-03T16:43:21.487Z,20.10
2018-05-03T16:45:49.194Z,19.71
2018-05-03T16:48:17.244Z,19.66
2018-05-03T16:50:49.063Z,19.76
2018-05-03T16:53:16.947Z,19.72
2018-05-03T16:55:46.144Z,19.78
2018-05-03T16:58:13.958Z,19.66
2018-05-03T17:00:41.712Z,19.88
2018-05-03T17:03:09.288Z,20.19
2018-05-03T17:05:39.325Z,22.36
2018-05-03T17:08:07.166Z,24.15
2018-05-03T17:10:35.670Z,23.85
2018-05-03T17:13:04.833Z,23.29
2018-05-03T17:15:35.544Z,23.67
2018-05-03T17:18:05.660Z,23.29
2018-05-03T17:20:34.073Z,22.88
2018-05-03T17:23:02.032Z,22.97
2018-05-03T17:25:29.653Z,22.28
2018-05-03T17:27:57.467Z,22.45
2018-05-03T17:30:25.205Z,21.78
2018-05-03T17:32:53.162Z,20.78
2018-05-03T17:35:20.937Z,20.31
2018-05-03T17:37:48.803Z,20.49
2018-05-03T17:40:16.754Z,20.30
2018-05-03T17:42:44.755Z,19.77
2018-05-03T17:45:12.622Z,20.13
2018-05-03T17:47:43.279Z,19.50
2018-05-03T17:50:11.478Z,19.86
2018-05-03T17:52:41.422Z,19.46
2018-05-03T17:55:10.598Z,19.70
2018-05-03T17:57:39.386Z,19.42
2018-05-03T18:00:09.240Z,18.76
2018-05-03T18:02:37.778Z,19.05
2018-05-03T18:05:10.026Z,19.29
2018-05-03T18:07:38.826Z,18.63
2018-05-03T18:10:08.168Z,18.64
2018-05-03T18:12:38.446Z,18.37
2018-05-03T18:15:08.432Z,17.98
2018-05-03T18:17:36.302Z,17.37
2018-05-03T18:20:06.572Z,17.28
2018-05-03T18:22:34.105Z,17.18
2018-05-03T18:25:01.682Z,16.62
2018-05-03T18:27:29.210Z,16.69
2018-05-03T18:29:59.642Z,16.45
2018-05-03T18:32:30.597Z,16.54
2018-05-03T18:34:58.617Z,16.18
2018-05-03T18:37:26.142Z,16.00
2018-05-03T18:39:53.717Z,15.98
2018-05-03T18:42:21.524Z,15.96
2018-05-03T18:44:49.288Z,15.76
2018-05-03T18:47:16.826Z,15.70
2018-05-03T18:49:44.495Z,15.50
2018-05-03T18:52:12.023Z,15.37
2018-05-03T18:54:39.700Z,15.30
2018-05-03T18:57:07.182Z,15.26
2018-05-03T18:59:34.741Z,15.09
2018-05-03T19:02:03.284Z,15.14
2018-05-03T19:04:30.986Z,14.96
2018-05-03T19:06:58.546Z,14.96
2018-05-03T19:09:26.473Z,14.89
2018-05-03T19:11:56.318Z,14.80
2018-05-03T19:14:25.132Z,14.72
2018-05-03T19:16:52.905Z,14.73
2018-05-03T19:19:20.581Z,14.67
2018-05-03T19:21:48.100Z,14.58
2018-05-03T19:24:15.936Z,14.55
2018-05-03T19:26:43.490Z,14.45
2018-05-03T19:29:11.069Z,14.38
2018-05-03T19:31:38.591Z,14.32
2018-05-03T19:34:06.141Z,14.24
2018-05-03T19:36:34.147Z,14.18
2018-05-03T19:39:01.754Z,14.07
2018-05-03T19:41:29.622Z,14.09
2018-05-03T19:43:57.265Z,14.01
2018-05-03T19:46:24.926Z,13.98
2018-05-03T19:48:53.006Z,13.94
2018-05-03T19:51:21.009Z,13.95
2018-05-03T19:53:48.538Z,13.86
2018-05-03T19:56:16.111Z,13.84
2018-05-03T19:58:44.073Z,13.89
2018-05-03T20:01:11.821Z,13.87
2018-05-03T20:03:39.394Z,13.80
2018-05-03T20:06:06.974Z,13.84
2018-05-03T20:08:34.502Z,13.74
2018-05-03T20:11:02.174Z,13.79
2018-05-03T20:13:29.881Z,13.67
2018-05-03T20:15:57.485Z,13.54
2018-05-03T20:18:25.433Z,13.57
2018-05-03T20:20:55.953Z,13.63
2018-05-03T20:23:24.038Z,13.50
2018-05-03T20:25:51.775Z,13.43
2018-05-03T20:28:19.364Z,13.38
2018-05-03T20:30:47.471Z,13.38
2018-05-03T20:33:15.174Z,13.26
2018-05-03T20:35:43.049Z,13.23
2018-05-03T20:38:10.751Z,13.01
2018-05-03T20:40:38.530Z,12.99
2018-05-03T20:43:06.109Z,13.01
2018-05-03T20:45:34.785Z,12.73
2018-05-03T20:48:02.429Z,12.64
2018-05-03T20:50:30.134Z,12.68
2018-05-03T20:52:57.686Z,12.48
2018-05-03T20:55:25.387Z,12.44
2018-05-03T20:57:53.474Z,12.45
2018-05-03T21:00:21.073Z,12.43
2018-05-03T21:02:48.625Z,12.44
2018-05-03T21:05:16.256Z,12.31
2018-05-03T21:07:44.156Z,12.39
2018-05-03T21:10:11.705Z,12.37
2018-05-03T21:12:39.239Z,11.89
2018-05-03T21:15:06.813Z,11.92
2018-05-03T21:17:34.339Z,11.71
2018-05-03T21:20:01.896Z,11.78
2018-05-03T21:22:29.581Z,12.04
2018-05-03T21:24:59.640Z,11.86
2018-05-03T21:27:27.665Z,12.09
2018-05-03T21:29:55.613Z,12.07
2018-05-03T21:32:23.424Z,12.02
2018-05-03T21:34:51.576Z,12.13
2018-05-03T21:37:19.283Z,12.09
2018-05-03T21:39:46.806Z,12.09
2018-05-03T21:42:14.460Z,12.01
2018-05-03T21:44:42.512Z,11.90
2018-05-03T21:47:10.141Z,11.90
2018-05-03T21:49:37.661Z,11.87
2018-05-03T21:52:05.302Z,11.91
2018-05-03T21:54:32.947Z,11.93
2018-05-03T21:57:00.553Z,11.98
2018-05-03T21:59:28.250Z,11.95
2018-05-03T22:01:56.061Z,11.96
2018-05-03T22:04:23.841Z,11.84
2018-05-03T22:06:51.601Z,11.93
2018-05-03T22:09:19.184Z,11.94
2018-05-03T22:11:46.840Z,11.78
2018-05-03T22:14:14.366Z,11.71
2018-05-03T22:16:41.917Z,11.70
2018-05-03T22:19:09.441Z,11.77
2018-05-03T22:21:37.321Z,11.77
2018-05-03T22:24:04.851Z,11.69
2018-05-03T22:26:32.398Z,11.58
2018-05-03T22:29:00.049Z,11.69
2018-05-03T22:31:27.708Z,11.52
2018-05-03T22:33:55.458Z,11.37
2018-05-03T22:36:23.015Z,11.39
2018-05-03T22:38:50.543Z,11.07
2018-05-03T22:41:18.536Z,10.90
2018-05-03T22:43:46.571Z,11.07
2018-05-03T22:46:14.475Z,11.16
2018-05-03T22:48:42.022Z,11.09
2018-05-03T22:51:09.805Z,10.94
2018-05-03T22:53:37.596Z,10.99
2018-05-03T22:56:05.240Z,11.07
2018-05-03T22:58:33.031Z,10.86
2018-05-03T23:01:00.583Z,10.84
2018-05-03T23:03:28.339Z,10.46
2018-05-03T23:05:56.401Z,10.79
2018-05-03T23:08:24.014Z,10.70
2018-05-03T23:10:55.677Z,10.58
2018-05-03T23:13:24.999Z,10.57
2018-05-03T23:15:53.300Z,10.84
2018-05-03T23:18:21.945Z,10.83
2018-05-03T23:20:50.307Z,10.87
2018-05-03T23:23:18.734Z,10.90
2018-05-03T23:25:46.458Z,10.92
2018-05-03T23:28:14.514Z,11.06
2018-05-03T23:30:43.219Z,11.10
2018-05-03T23:33:11.433Z,11.10
2018-05-03T23:35:39.016Z,11.01
2018-05-03T23:38:07.099Z,11.04
2018-05-03T23:40:34.619Z,11.06
2018-05-03T23:43:02.174Z,10.99
2018-05-03T23:45:30.129Z,11.05
2018-05-03T23:47:58.402Z,11.02
2018-05-03T23:50:26.653Z,10.97
2018-05-03T23:52:54.831Z,10.91
2018-05-03T23:55:23.030Z,10.75
2018-05-03T23:57:51.408Z,10.61
